Woodbourne (NZWB)

Aerodrome — Elev 109
New Zealand
S041.31.05.999 E173.52.13.001
Loading chart...

Approach and Departure control from NZCH-W_CTR.  Contact 123.7 prior to entering controlled airspace or IMC

Current Weather

NZWB 210300Z 04009KT 010V070 20KM BKN015 OVC020 14/11 Q1022 RMK AUTO VATSIM USE

Published 1 hours 36 minutes ago

Airport Activity

Loading chart...
Loading chart...

Positions

CallsignRadio Name / Freq / Voice Room / TypeFrequencyVoice RoomType
NZCH-T_CTR Christchurch Control
123.700
nzch-t_ctr
123.700nzch-t_ctr
NZWN_APP Wellington Approach
119.300
nzwn_app
119.300nzwn_app
NZWN_DEP Wellington Approach
122.300
nzwn_dep
122.300nzwn_dep
NZWB_TWR Woodbourne Tower
118.100
nzwb_twr
118.100nzwb_twr
NZWB_ATIS Woodbourne ATIS
126.05
nzwb_atis
126.05nzwb_atis
UNICOM NZZC UNICOM
122.800
unicom_nzzc
122.800unicom_nzzc

Charts